createdAt,value
2022-11-08T00:01:34.489Z,23.41
2022-11-08T00:04:00.791Z,23.41
2022-11-08T00:06:27.134Z,23.41
2022-11-08T00:08:53.475Z,23.41
2022-11-08T00:11:19.823Z,23.41
2022-11-08T00:13:46.168Z,23.41
2022-11-08T00:16:12.510Z,23.40
2022-11-08T00:18:38.853Z,23.41
2022-11-08T00:21:05.191Z,23.40
2022-11-08T00:23:31.530Z,23.41
2022-11-08T00:25:57.870Z,23.40
2022-11-08T00:28:24.222Z,23.38
2022-11-08T00:30:50.558Z,23.38
2022-11-08T00:33:16.896Z,23.40
2022-11-08T00:35:43.249Z,23.38
2022-11-08T00:38:09.627Z,23.39
2022-11-08T00:40:35.974Z,23.38
2022-11-08T00:43:02.322Z,23.38
2022-11-08T00:45:29.689Z,23.38
2022-11-08T00:47:55.051Z,23.36
2022-11-08T00:50:21.406Z,23.36
2022-11-08T00:52:47.742Z,23.36
2022-11-08T00:55:14.088Z,23.36
2022-11-08T00:57:58.367Z,23.36
2022-11-08T01:00:06.802Z,23.37
2022-11-08T01:02:33.207Z,23.36
2022-11-08T01:04:59.493Z,23.35
2022-11-08T01:07:25.829Z,23.37
2022-11-08T01:09:52.171Z,23.36
2022-11-08T01:12:18.514Z,23.36
2022-11-08T01:14:44.864Z,23.35
2022-11-08T01:17:11.197Z,23.34
2022-11-08T01:19:37.565Z,23.35
2022-11-08T01:22:03.905Z,23.35
2022-11-08T01:24:30.291Z,23.35
2022-11-08T01:26:56.630Z,23.34
2022-11-08T01:29:23.004Z,23.34
2022-11-08T01:31:49.351Z,23.34
2022-11-08T01:34:15.704Z,23.32
2022-11-08T01:36:42.049Z,23.32
2022-11-08T01:39:08.402Z,23.32
2022-11-08T01:41:34.735Z,23.32
2022-11-08T01:44:01.079Z,23.31
2022-11-08T01:46:27.424Z,23.30
2022-11-08T01:48:53.776Z,23.32
2022-11-08T01:51:20.127Z,23.32
2022-11-08T01:53:46.483Z,23.30
2022-11-08T01:56:12.820Z,23.31
2022-11-08T01:58:39.178Z,23.31
2022-11-08T02:03:50.805Z,23.30
2022-11-08T02:06:17.304Z,23.30
2022-11-08T02:08:43.653Z,23.30
2022-11-08T02:11:10.000Z,23.30
2022-11-08T02:13:36.355Z,23.29
2022-11-08T02:16:02.695Z,23.30
2022-11-08T02:18:29.043Z,23.29
2022-11-08T02:20:55.385Z,23.29
2022-11-08T02:23:21.728Z,23.30
2022-11-08T02:25:48.072Z,23.28
2022-11-08T02:28:14.589Z,23.29
2022-11-08T02:30:40.838Z,23.28
2022-11-08T02:33:07.253Z,23.28
2022-11-08T02:35:33.600Z,23.29
2022-11-08T02:37:59.951Z,23.28
2022-11-08T02:40:26.303Z,23.28
2022-11-08T02:42:52.682Z,23.28
2022-11-08T02:45:19.028Z,23.27
2022-11-08T02:47:45.380Z,23.27
2022-11-08T02:50:11.729Z,23.30
2022-11-08T02:52:38.069Z,23.30
2022-11-08T02:55:04.406Z,23.30
2022-11-08T02:57:30.747Z,23.29
2022-11-08T02:59:57.099Z,23.29
2022-11-08T03:02:23.552Z,23.31
2022-11-08T03:04:49.795Z,23.28
2022-11-08T03:07:20.785Z,23.29
2022-11-08T03:09:42.501Z,23.28
2022-11-08T03:12:08.856Z,23.24
2022-11-08T03:14:35.199Z,23.25
2022-11-08T03:17:01.547Z,23.24
2022-11-08T03:19:27.921Z,23.23
2022-11-08T03:21:54.260Z,23.24
2022-11-08T03:24:20.610Z,23.24
2022-11-08T03:26:46.983Z,23.25
2022-11-08T03:29:13.315Z,23.23
2022-11-08T03:31:39.672Z,23.23
2022-11-08T03:34:06.011Z,23.23
2022-11-08T03:36:32.358Z,23.23
2022-11-08T03:38:58.726Z,23.23
2022-11-08T03:41:25.045Z,23.22
2022-11-08T03:43:51.391Z,23.23
2022-11-08T03:46:17.733Z,23.23
2022-11-08T03:48:44.079Z,23.22
2022-11-08T03:51:10.430Z,23.22
2022-11-08T03:53:36.768Z,23.23
2022-11-08T03:56:03.121Z,23.22
2022-11-08T03:58:29.465Z,23.20
2022-11-08T04:00:55.877Z,23.23
2022-11-08T04:03:22.193Z,23.20
2022-11-08T04:05:48.533Z,23.21
2022-11-08T04:08:15.168Z,23.22
2022-11-08T04:10:41.221Z,23.20
2022-11-08T04:13:07.568Z,23.20
2022-11-08T04:15:33.922Z,23.22
2022-11-08T04:18:00.269Z,23.21
2022-11-08T04:20:26.646Z,23.22
2022-11-08T04:22:52.994Z,23.20
2022-11-08T04:25:19.498Z,23.17
2022-11-08T04:27:45.847Z,23.15
2022-11-08T04:30:12.196Z,23.14
2022-11-08T04:32:38.549Z,23.14
2022-11-08T04:35:04.897Z,23.14
2022-11-08T04:37:31.234Z,23.14
2022-11-08T04:39:57.585Z,23.14
2022-11-08T04:42:23.934Z,23.14
2022-11-08T04:44:50.289Z,23.13
2022-11-08T04:47:16.628Z,23.13
2022-11-08T04:49:42.977Z,23.13
2022-11-08T04:52:09.321Z,23.13
2022-11-08T04:54:35.681Z,23.12
2022-11-08T04:57:02.061Z,23.12
2022-11-08T04:59:28.411Z,23.14
2022-11-08T05:01:54.905Z,23.14
2022-11-08T05:04:21.124Z,23.15
2022-11-08T05:06:47.463Z,23.14
2022-11-08T05:09:13.820Z,23.17
2022-11-08T05:11:40.168Z,23.15
2022-11-08T05:14:06.509Z,23.16
2022-11-08T05:16:32.853Z,23.17
2022-11-08T05:18:59.204Z,23.16
2022-11-08T05:21:25.552Z,23.16
2022-11-08T05:23:51.936Z,23.16
2022-11-08T05:26:18.271Z,23.17
2022-11-08T05:28:44.613Z,23.16
2022-11-08T05:31:10.961Z,23.16
2022-11-08T05:33:37.322Z,23.16
2022-11-08T05:36:05.986Z,23.16
2022-11-08T05:38:30.021Z,23.17
2022-11-08T05:40:56.374Z,23.18
2022-11-08T05:43:22.722Z,23.18
2022-11-08T05:45:49.064Z,23.17
2022-11-08T05:48:15.667Z,23.18
2022-11-08T05:50:41.751Z,23.20
2022-11-08T05:53:08.106Z,23.20
2022-11-08T05:55:34.730Z,23.20
2022-11-08T05:58:01.114Z,23.22
2022-11-08T06:00:27.495Z,23.21
2022-11-08T06:02:53.870Z,23.21
2022-11-08T06:05:20.183Z,23.23
2022-11-08T06:07:46.541Z,23.23
2022-11-08T06:10:12.887Z,23.23
2022-11-08T06:12:39.287Z,23.25
2022-11-08T06:15:05.630Z,23.27
2022-11-08T06:17:31.977Z,23.26
2022-11-08T06:19:58.345Z,23.27
2022-11-08T06:22:24.694Z,23.27
2022-11-08T06:24:51.047Z,23.29
2022-11-08T06:27:17.394Z,23.27
2022-11-08T06:29:43.739Z,23.28
2022-11-08T06:32:10.102Z,23.27
2022-11-08T06:34:36.486Z,23.30
2022-11-08T06:37:02.834Z,23.27
2022-11-08T06:39:29.170Z,23.29
2022-11-08T06:41:55.670Z,23.28
2022-11-08T06:44:22.056Z,23.30
2022-11-08T06:46:48.466Z,23.31
2022-11-08T06:49:14.819Z,23.32
2022-11-08T06:51:41.199Z,23.32
2022-11-08T06:54:08.803Z,23.30
2022-11-08T06:56:33.924Z,23.34
2022-11-08T06:59:00.274Z,23.34
2022-11-08T07:01:26.752Z,23.38
2022-11-08T07:03:52.979Z,23.37
2022-11-08T07:06:19.320Z,23.38
2022-11-08T07:08:45.669Z,23.39
2022-11-08T07:11:12.027Z,23.40
2022-11-08T07:13:38.365Z,23.41
2022-11-08T07:16:04.715Z,23.40
2022-11-08T07:18:31.130Z,23.43
2022-11-08T07:20:57.415Z,23.42
2022-11-08T07:23:23.891Z,23.44
2022-11-08T07:25:51.058Z,23.46
2022-11-08T07:28:16.466Z,23.49
2022-11-08T07:30:42.821Z,23.49
2022-11-08T07:33:09.181Z,23.49
2022-11-08T07:35:35.525Z,23.51
2022-11-08T07:38:01.896Z,23.53
2022-11-08T07:40:28.302Z,23.52
2022-11-08T07:43:12.981Z,23.54
2022-11-08T07:45:21.001Z,23.54
2022-11-08T07:47:47.349Z,23.57
2022-11-08T07:50:17.698Z,23.58
2022-11-08T07:52:40.048Z,23.60
2022-11-08T07:55:06.397Z,23.60
2022-11-08T07:57:32.757Z,23.62
2022-11-08T08:00:02.368Z,23.61
2022-11-08T08:02:25.518Z,23.62
2022-11-08T08:04:51.852Z,23.68
2022-11-08T08:07:18.188Z,23.67
2022-11-08T08:09:44.604Z,23.67
2022-11-08T08:12:14.578Z,23.68
2022-11-08T08:14:39.739Z,23.68
2022-11-08T08:17:06.096Z,23.70
2022-11-08T08:19:32.473Z,23.71
2022-11-08T08:21:58.863Z,23.72
2022-11-08T08:24:25.202Z,23.71
2022-11-08T08:26:51.574Z,23.72
2022-11-08T08:29:17.918Z,23.74
2022-11-08T08:31:44.304Z,23.73
2022-11-08T08:34:10.667Z,23.75
2022-11-08T08:36:37.032Z,23.75
2022-11-08T08:39:03.386Z,23.76
2022-11-08T08:41:29.759Z,23.79
2022-11-08T08:43:56.204Z,23.80
2022-11-08T08:46:22.537Z,23.79
2022-11-08T08:48:48.948Z,23.82
2022-11-08T08:51:15.311Z,23.82
2022-11-08T08:53:41.705Z,23.84
2022-11-08T08:56:08.066Z,23.85
2022-11-08T08:58:34.632Z,23.88
2022-11-08T09:03:27.133Z,23.90
2022-11-08T09:05:53.523Z,23.90
2022-11-08T09:08:19.858Z,23.91
2022-11-08T09:10:46.262Z,23.89
2022-11-08T09:13:12.630Z,23.89
2022-11-08T09:15:39.004Z,23.91
2022-11-08T09:18:05.405Z,23.91
2022-11-08T09:20:31.772Z,23.90
2022-11-08T09:22:58.118Z,23.92
2022-11-08T09:25:24.478Z,23.96
2022-11-08T09:27:50.835Z,23.97
2022-11-08T09:30:17.193Z,23.96
2022-11-08T09:33:00.450Z,23.97
2022-11-08T09:35:09.962Z,23.97
2022-11-08T09:37:36.307Z,24.01
2022-11-08T09:40:02.681Z,23.99
2022-11-08T09:42:29.014Z,24.01
2022-11-08T09:44:55.376Z,24.03
2022-11-08T09:47:21.740Z,24.03
2022-11-08T09:49:48.119Z,24.04
2022-11-08T09:52:14.533Z,24.05
2022-11-08T09:54:40.895Z,24.05
2022-11-08T09:57:07.312Z,24.03
2022-11-08T09:59:33.685Z,24.08
2022-11-08T10:02:00.068Z,24.08
2022-11-08T10:04:26.422Z,24.08
2022-11-08T10:06:54.010Z,24.10
2022-11-08T10:09:19.125Z,24.12
2022-11-08T10:11:45.460Z,24.12
2022-11-08T10:14:11.816Z,24.13
2022-11-08T10:16:38.158Z,24.11
2022-11-08T10:19:04.515Z,24.12
2022-11-08T10:21:30.859Z,24.12
2022-11-08T10:23:57.214Z,24.09
2022-11-08T10:26:27.077Z,24.08
2022-11-08T10:28:49.928Z,24.05
2022-11-08T10:31:16.270Z,24.06
2022-11-08T10:33:42.620Z,24.06
2022-11-08T10:36:08.974Z,24.05
2022-11-08T10:38:35.402Z,24.04
2022-11-08T10:41:01.752Z,24.05
2022-11-08T10:43:28.107Z,24.06
2022-11-08T10:45:54.560Z,24.06
2022-11-08T10:48:21.089Z,24.06
2022-11-08T10:50:47.260Z,24.12
2022-11-08T10:53:13.614Z,24.17
2022-11-08T10:55:39.963Z,24.19
2022-11-08T10:58:06.318Z,24.24
2022-11-08T11:00:32.663Z,24.24
2022-11-08T11:02:59.082Z,24.24
2022-11-08T11:05:25.428Z,24.25
2022-11-08T11:07:51.760Z,24.24
2022-11-08T11:10:18.109Z,24.28
2022-11-08T11:12:44.485Z,24.31
2022-11-08T11:15:10.818Z,24.34
2022-11-08T11:17:39.970Z,24.43
2022-11-08T11:20:03.515Z,24.50
2022-11-08T11:22:29.856Z,24.63
2022-11-08T11:24:56.200Z,24.69
2022-11-08T11:27:22.565Z,24.72
2022-11-08T11:29:48.905Z,24.71
2022-11-08T11:32:15.259Z,24.70
2022-11-08T11:34:41.605Z,24.75
2022-11-08T11:37:07.957Z,24.78
2022-11-08T11:39:34.302Z,24.84
2022-11-08T11:42:17.810Z,24.78
2022-11-08T11:44:27.128Z,24.89
2022-11-08T11:46:53.491Z,24.87
2022-11-08T11:49:19.840Z,24.87
2022-11-08T11:51:46.259Z,24.86
2022-11-08T11:54:12.553Z,24.73
2022-11-08T11:56:38.891Z,24.57
2022-11-08T11:59:05.262Z,24.47
2022-11-08T12:01:31.686Z,24.41
2022-11-08T12:03:57.992Z,24.34
2022-11-08T12:06:24.342Z,24.34
2022-11-08T12:08:50.706Z,24.38
2022-11-08T12:11:17.082Z,24.38
2022-11-08T12:13:43.462Z,24.38
2022-11-08T12:16:09.803Z,24.39
2022-11-08T12:18:43.067Z,24.33
2022-11-08T12:21:02.611Z,24.33
2022-11-08T12:23:28.984Z,24.32
2022-11-08T12:25:55.357Z,24.31
2022-11-08T12:28:21.710Z,24.34
2022-11-08T12:30:48.059Z,24.33
2022-11-08T12:33:14.402Z,24.33
2022-11-08T12:35:40.744Z,24.35
2022-11-08T12:38:07.158Z,24.34
2022-11-08T12:40:33.510Z,24.35
2022-11-08T12:42:59.850Z,24.38
2022-11-08T12:45:26.200Z,24.34
2022-11-08T12:47:52.585Z,24.34
2022-11-08T12:50:18.969Z,24.36
2022-11-08T12:52:45.271Z,24.38
2022-11-08T12:55:11.623Z,24.35
2022-11-08T12:57:39.076Z,24.33
2022-11-08T13:00:04.316Z,24.33
2022-11-08T13:02:30.652Z,24.35
2022-11-08T13:04:56.996Z,24.33
2022-11-08T13:07:23.344Z,24.33
2022-11-08T13:09:49.929Z,24.28
2022-11-08T13:12:16.273Z,24.27
2022-11-08T13:14:42.613Z,24.28
2022-11-08T13:17:08.960Z,24.23
2022-11-08T13:19:35.366Z,24.18
2022-11-08T13:22:01.789Z,24.19
2022-11-08T13:24:43.793Z,24.18
2022-11-08T13:26:59.258Z,24.16
2022-11-08T13:29:20.876Z,24.08
2022-11-08T13:31:47.212Z,24.08
2022-11-08T13:34:13.567Z,24.10
2022-11-08T13:36:39.901Z,24.16
2022-11-08T13:39:06.244Z,24.14
2022-11-08T13:41:32.591Z,24.14
2022-11-08T13:43:58.954Z,24.06
2022-11-08T13:46:25.290Z,24.06
2022-11-08T13:48:51.642Z,24.05
2022-11-08T13:51:17.996Z,24.10
2022-11-08T13:53:44.339Z,24.06
2022-11-08T13:56:10.679Z,24.04
2022-11-08T13:58:37.032Z,24.05
2022-11-08T14:01:03.463Z,24.11
2022-11-08T14:03:29.760Z,24.06
2022-11-08T14:05:56.100Z,24.05
2022-11-08T14:08:22.466Z,24.17
2022-11-08T14:10:48.798Z,24.14
2022-11-08T14:13:15.331Z,24.14
2022-11-08T14:15:41.498Z,24.29
2022-11-08T14:18:07.853Z,24.33
2022-11-08T14:20:34.203Z,24.25
2022-11-08T14:23:00.611Z,24.35
2022-11-08T14:25:26.957Z,24.36
2022-11-08T14:27:53.360Z,24.27
2022-11-08T14:30:19.709Z,24.24
2022-11-08T14:32:46.041Z,24.26
2022-11-08T14:35:12.388Z,24.26
2022-11-08T14:37:38.768Z,24.24
2022-11-08T14:40:05.108Z,24.17
2022-11-08T14:42:31.447Z,24.08
2022-11-08T14:44:57.793Z,24.02
2022-11-08T14:47:24.144Z,23.96
2022-11-08T14:49:51.611Z,24.00
2022-11-08T14:52:16.889Z,23.96
2022-11-08T14:54:43.173Z,23.95
2022-11-08T14:57:09.521Z,23.96
2022-11-08T14:59:35.862Z,23.98
2022-11-08T15:02:02.220Z,24.00
2022-11-08T15:04:28.565Z,23.97
2022-11-08T15:06:54.981Z,23.91
2022-11-08T15:09:21.289Z,23.87
2022-11-08T15:11:52.480Z,23.88
2022-11-08T15:14:13.985Z,23.89
2022-11-08T15:16:40.327Z,23.92
2022-11-08T15:19:06.666Z,24.01
2022-11-08T15:21:33.068Z,24.02
2022-11-08T15:23:59.506Z,24.08
2022-11-08T15:26:28.433Z,24.05
2022-11-08T15:28:54.817Z,24.09
2022-11-08T15:31:21.154Z,24.10
2022-11-08T15:33:47.511Z,24.13
2022-11-08T15:36:13.857Z,24.12
2022-11-08T15:38:40.193Z,24.13
2022-11-08T15:41:06.548Z,24.14
2022-11-08T15:43:32.886Z,24.12
2022-11-08T15:45:59.337Z,24.09
2022-11-08T15:48:25.606Z,24.03
2022-11-08T15:50:51.954Z,24.02
2022-11-08T15:53:18.310Z,24.00
2022-11-08T15:55:44.654Z,23.97
2022-11-08T15:58:11.001Z,23.96
2022-11-08T16:00:37.354Z,23.94
2022-11-08T16:03:03.696Z,23.90
2022-11-08T16:05:30.035Z,23.91
2022-11-08T16:07:56.381Z,23.90
2022-11-08T16:10:22.730Z,23.88
2022-11-08T16:12:49.067Z,23.89
2022-11-08T16:15:15.421Z,23.91
2022-11-08T16:17:41.774Z,23.88
2022-11-08T16:20:08.118Z,23.88
2022-11-08T16:22:34.462Z,23.88
2022-11-08T16:25:00.819Z,23.87
2022-11-08T16:27:27.165Z,23.88
2022-11-08T16:29:53.537Z,23.87
2022-11-08T16:32:19.873Z,23.86
2022-11-08T16:34:46.237Z,23.88
2022-11-08T16:37:12.577Z,23.87
2022-11-08T16:39:38.913Z,23.88
2022-11-08T16:42:05.256Z,23.89
2022-11-08T16:44:31.597Z,23.89
2022-11-08T16:46:57.928Z,23.87
2022-11-08T16:49:24.278Z,23.88
2022-11-08T16:51:50.621Z,23.91
2022-11-08T16:54:16.962Z,23.90
2022-11-08T16:56:43.307Z,23.90
2022-11-08T16:59:10.006Z,23.90
2022-11-08T17:01:36.377Z,23.94
2022-11-08T17:04:02.772Z,23.94
2022-11-08T17:06:29.166Z,23.94
2022-11-08T17:08:55.483Z,23.94
2022-11-08T17:11:21.822Z,23.94
2022-11-08T17:13:48.167Z,23.96
2022-11-08T17:16:14.500Z,23.95
2022-11-08T17:18:40.842Z,23.95
2022-11-08T17:21:23.242Z,23.94
2022-11-08T17:23:33.534Z,23.96
2022-11-08T17:25:59.871Z,23.94
2022-11-08T17:28:26.214Z,23.94
2022-11-08T17:30:52.553Z,23.96
2022-11-08T17:33:19.211Z,23.92
2022-11-08T17:35:45.240Z,23.95
2022-11-08T17:38:11.831Z,23.95
2022-11-08T17:40:38.169Z,23.95
2022-11-08T17:43:04.512Z,23.96
2022-11-08T17:45:30.855Z,23.94
2022-11-08T17:47:57.201Z,23.94
2022-11-08T17:50:23.544Z,23.92
2022-11-08T17:52:49.887Z,23.94
2022-11-08T17:55:16.217Z,23.94
2022-11-08T17:57:42.563Z,23.91
2022-11-08T18:00:11.158Z,23.90
2022-11-08T18:02:35.308Z,23.90
2022-11-08T18:05:01.612Z,23.90
2022-11-08T18:07:27.951Z,23.88
2022-11-08T18:09:54.302Z,23.88
2022-11-08T18:12:20.678Z,23.89
2022-11-08T18:14:47.055Z,23.91
2022-11-08T18:17:13.649Z,23.86
2022-11-08T18:19:39.990Z,23.88
2022-11-08T18:22:06.339Z,23.86
2022-11-08T18:24:32.676Z,23.85
2022-11-08T18:26:59.052Z,23.85
2022-11-08T18:29:25.383Z,23.86
2022-11-08T18:31:51.758Z,23.86
2022-11-08T18:34:18.088Z,23.83
2022-11-08T18:36:44.436Z,23.82
2022-11-08T18:39:12.088Z,23.80
2022-11-08T18:41:37.120Z,23.80
2022-11-08T18:44:03.465Z,23.79
2022-11-08T18:46:29.834Z,23.77
2022-11-08T18:48:56.151Z,23.76
2022-11-08T18:51:22.504Z,23.76
2022-11-08T18:53:48.840Z,23.75
2022-11-08T18:56:15.181Z,23.75
2022-11-08T18:58:41.519Z,23.75
2022-11-08T19:01:07.861Z,23.74
2022-11-08T19:03:34.201Z,23.72
2022-11-08T19:06:00.539Z,23.74
2022-11-08T19:08:26.925Z,23.74
2022-11-08T19:10:53.224Z,23.75
2022-11-08T19:13:19.920Z,23.73
2022-11-08T19:15:46.900Z,23.72
2022-11-08T19:18:12.272Z,23.72
2022-11-08T19:20:38.606Z,23.71
2022-11-08T19:23:04.965Z,23.70
2022-11-08T19:25:31.292Z,23.71
2022-11-08T19:27:57.645Z,23.70
2022-11-08T19:30:23.989Z,23.69
2022-11-08T19:32:50.347Z,23.69
2022-11-08T19:35:16.683Z,23.69
2022-11-08T19:37:43.036Z,23.67
2022-11-08T19:40:09.400Z,23.68
2022-11-08T19:42:35.754Z,23.68
2022-11-08T19:45:02.132Z,23.67
2022-11-08T19:47:28.528Z,23.67
2022-11-08T19:49:54.874Z,23.66
2022-11-08T19:52:21.225Z,23.66
2022-11-08T19:54:47.572Z,23.64
2022-11-08T19:57:13.912Z,23.66
2022-11-08T19:59:40.255Z,23.65
2022-11-08T20:02:06.731Z,23.65
2022-11-08T20:04:32.954Z,23.62
2022-11-08T20:06:59.378Z,23.64
2022-11-08T20:09:30.223Z,23.61
2022-11-08T20:11:52.155Z,23.61
2022-11-08T20:14:18.525Z,23.61
2022-11-08T20:16:49.296Z,23.61
2022-11-08T20:19:11.227Z,23.60
2022-11-08T20:21:37.587Z,23.59
2022-11-08T20:24:03.918Z,23.60
2022-11-08T20:26:30.269Z,23.60
2022-11-08T20:28:57.261Z,23.57
2022-11-08T20:31:23.163Z,23.59
2022-11-08T20:33:49.296Z,23.58
2022-11-08T20:36:15.659Z,23.58
2022-11-08T20:38:43.332Z,23.57
2022-11-08T20:41:08.338Z,23.57
2022-11-08T20:43:34.683Z,23.56
2022-11-08T20:46:01.037Z,23.57
2022-11-08T20:48:28.662Z,23.55
2022-11-08T20:50:53.736Z,23.57
2022-11-08T20:53:20.078Z,23.55
2022-11-08T20:55:46.425Z,23.56
2022-11-08T20:58:12.776Z,23.55
2022-11-08T21:00:57.168Z,23.54
2022-11-08T21:03:05.475Z,23.54
2022-11-08T21:05:31.846Z,23.54
2022-11-08T21:08:08.137Z,23.53
2022-11-08T21:10:42.427Z,23.53
2022-11-08T21:12:50.933Z,23.53
2022-11-08T21:15:17.230Z,23.52
2022-11-08T21:17:43.578Z,23.53
2022-11-08T21:20:09.933Z,23.51
2022-11-08T21:22:36.272Z,23.52
2022-11-08T21:25:02.621Z,23.51
2022-11-08T21:27:30.033Z,23.50
2022-11-08T21:29:55.318Z,23.50
2022-11-08T21:32:21.674Z,23.50
2022-11-08T21:34:48.122Z,23.47
2022-11-08T21:37:14.462Z,23.49
2022-11-08T21:39:40.811Z,23.47
2022-11-08T21:42:07.160Z,23.49
2022-11-08T21:44:33.515Z,23.46
2022-11-08T21:46:59.859Z,23.46
2022-11-08T21:49:26.208Z,23.46
2022-11-08T21:51:52.547Z,23.46
2022-11-08T21:54:18.923Z,23.45
2022-11-08T21:56:45.267Z,23.44
2022-11-08T21:59:11.643Z,23.45
2022-11-08T22:01:37.994Z,23.44
2022-11-08T22:04:04.332Z,23.44
2022-11-08T22:06:30.715Z,23.44
2022-11-08T22:08:57.053Z,23.43
2022-11-08T22:11:23.407Z,23.44
2022-11-08T22:13:49.785Z,23.43
2022-11-08T22:16:16.139Z,23.44
2022-11-08T22:19:03.704Z,23.43
2022-11-08T22:21:08.820Z,23.41
2022-11-08T22:23:35.160Z,23.43
2022-11-08T22:26:01.498Z,23.42
2022-11-08T22:28:27.842Z,23.40
2022-11-08T22:30:54.263Z,23.40
2022-11-08T22:33:20.606Z,23.40
2022-11-08T22:35:46.953Z,23.40
2022-11-08T22:38:13.303Z,23.40
2022-11-08T22:40:39.652Z,23.40
2022-11-08T22:43:05.997Z,23.38
2022-11-08T22:45:32.339Z,23.39
2022-11-08T22:47:58.692Z,23.38
2022-11-08T22:50:25.033Z,23.37
2022-11-08T22:52:51.382Z,23.37
2022-11-08T22:55:17.717Z,23.37
2022-11-08T22:57:44.072Z,23.38
2022-11-08T23:00:10.555Z,23.36
2022-11-08T23:02:36.927Z,23.36
2022-11-08T23:05:03.290Z,23.36
2022-11-08T23:07:29.723Z,23.36
2022-11-08T23:09:56.089Z,23.36
2022-11-08T23:12:22.464Z,23.35
2022-11-08T23:14:48.831Z,23.36
2022-11-08T23:17:15.196Z,23.35
2022-11-08T23:19:41.562Z,23.34
2022-11-08T23:22:07.929Z,23.34
2022-11-08T23:24:34.296Z,23.35
2022-11-08T23:27:00.670Z,23.32
2022-11-08T23:29:27.039Z,23.32
2022-11-08T23:31:53.400Z,23.32
2022-11-08T23:34:19.763Z,23.30
2022-11-08T23:36:46.134Z,23.32
2022-11-08T23:39:12.495Z,23.30
2022-11-08T23:41:38.866Z,23.31
2022-11-08T23:44:05.229Z,23.30
2022-11-08T23:46:31.601Z,23.29
2022-11-08T23:48:57.965Z,23.28
2022-11-08T23:51:24.355Z,23.29
2022-11-08T23:53:50.743Z,23.28
2022-11-08T23:56:17.105Z,23.29
2022-11-08T23:58:43.468Z,23.28
